Observation data for O'Donnell on 04/23/2019      Previous  Date  Next       Current Mesonet Observations  Soil Data  Daily Summary Page  Observations in Plain Language
KOES 230500Z 05014KT 15/14 A3002 RMK A01 T01470139  RH  099%=      5-min Rain = 0
KOES 230505Z 04014KT 15/14 A3002 RMK A01 T01470139  RH  099%=      5-min Rain = 0
KOES 230510Z 05014KT 15/14 A3002 RMK A01 T01470139  RH  099%=      5-min Rain = 0
KOES 230515Z 04012KT 15/14 A3002 RMK A01 T01470139  RH  099%=      5-min Rain = 0
KOES 230520Z 04013KT 15/14 A3002 RMK A01 T01470139  RH  099%=      5-min Rain = 0
KOES 230525Z 04013KT 15/14 A3002 RMK A01 T01470139  RH  099%=      5-min Rain = 0
KOES 230530Z 04013KT 15/14 A3002 RMK A01 T01470139  RH  099%=      5-min Rain = 0
KOES 230535Z 04012KT 15/14 A3002 RMK A01 T01480140  RH  099%=      5-min Rain = 0
KOES 230540Z 03012KT 15/14 A3001 RMK A01 T01480140  RH  099%=      5-min Rain = 0
KOES 230545Z 03013KT 15/14 A3001 RMK A01 T01470139  RH  099%=      5-min Rain = 0
KOES 230550Z 03012KT 15/14 A3001 RMK A01 T01470139  RH  099%=      5-min Rain = 0
KOES 230555Z 03014KT 15/14 A3001 RMK A01 T01460139  RH  099%=      5-min Rain = 0
KOES 230600Z 04013KT 15/14 A30 RMK A01 T01470139  RH  099%=      5-min Rain = 0
KOES 230605Z 04013KT 15/14 A30 RMK A01 T01470139  RH  099%=      5-min Rain = 0
KOES 230610Z 04013KT 15/14 A30 RMK A01 T01470139  RH  100%=      5-min Rain = 0
KOES 230615Z 04013KT 15/14 A30 RMK A01 T01470140  RH  100%=      5-min Rain = 0
KOES 230620Z 04012KT 15/14 A30 RMK A01 T01470139  RH  100%=      5-min Rain = 0
KOES 230625Z 04012KT 15/14 A30 RMK A01 T01460139  RH  100%=      5-min Rain = 0
KOES 230630Z 04013KT 15/14 A30 RMK A01 T01460139  RH  100%=      5-min Rain = 0
KOES 230635Z 03012KT 15/14 A30 RMK A01 T01460139  RH  100%=      5-min Rain = 0
KOES 230640Z 03012KT 15/14 A30 RMK A01 T01460139  RH  100%=      5-min Rain = 0
KOES 230645Z 03011KT 15/14 A3001 RMK A01 T01470139  RH  100%=      5-min Rain = 0
KOES 230650Z 02010G15KT 15/14 A3001 RMK A01 T01470140  RH  100%=      5-min Rain = 0
KOES 230655Z 01010KT 15/14 A3001 RMK A01 T01470140  RH  100%=      5-min Rain = 0
KOES 230700Z 01010KT 15/14 A3001 RMK A01 T01460139  RH  100%=      5-min Rain = 0
KOES 230705Z 01008KT 15/14 A3001 RMK A01 T01470139  RH  100%=      5-min Rain = 0
KOES 230710Z 02008KT 15/14 A3001 RMK A01 T01460139  RH  100%=      5-min Rain = 0
KOES 230715Z 03010KT 15/14 A3001 RMK A01 T01460139  RH  100%=      5-min Rain = 0
KOES 230720Z 03010KT 15/14 A3001 RMK A01 T01460139  RH  100%=      5-min Rain = 0
KOES 230725Z 04012KT 15/14 A30 RMK A01 T01450138  RH  100%=      5-min Rain = 0
KOES 230730Z 05011KT 15/14 A30 RMK A01 T01450137  RH  099%=      5-min Rain = 0
KOES 230735Z 05011KT 14/14 A30 RMK A01 T01440137  RH  099%=      5-min Rain = 0
KOES 230740Z 04009KT 14/14 A30 RMK A01 T01440137  RH  099%=      5-min Rain = 0.01
KOES 230745Z 03008KT 14/14 A30 RMK A01 T01440137  RH  100%=      5-min Rain = 0
KOES 230750Z 04009KT 14/14 A30 RMK A01 T01440137  RH  100%=      5-min Rain = 0
KOES 230755Z 04010KT 14/14 A2999 RMK A01 T01440137  RH  100%=      5-min Rain = 0.01
KOES 230800Z 03009KT 14/14 A2999 RMK A01 T01430137  RH  100%=      5-min Rain = 0
KOES 230805Z 03011KT 14/14 A2998 RMK A01 T01430136  RH  100%=      5-min Rain = 0
KOES 230810Z 04013KT 14/14 A2997 RMK A01 T01420135  RH  100%=      5-min Rain = 0
KOES 230815Z 04011KT 14/14 A2999 RMK A01 T01410135  RH  100%=      5-min Rain = 0
KOES 230820Z 03009KT 14/14 A2999 RMK A01 T01410135  RH  100%=      5-min Rain = 0
KOES 230825Z 04010KT 14/14 A2998 RMK A01 T01410135  RH  100%=      5-min Rain = 0
KOES 230830Z 03011KT 14/13 A2998 RMK A01 T01400134  RH  100%=      5-min Rain = 0
KOES 230835Z 02009KT 14/13 A2999 RMK A01 T01390133  RH  100%=      5-min Rain = 0
KOES 230840Z 01009KT 14/13 A30 RMK A01 T01380132  RH  100%=      5-min Rain = 0
KOES 230845Z 35008KT 14/13 A30 RMK A01 T01380131  RH  100%=      5-min Rain = 0
KOES 230850Z 33007KT 14/13 A3001 RMK A01 T01370131  RH  100%=      5-min Rain = 0
KOES 230855Z 35010KT 14/13 A3001 RMK A01 T01360129  RH  100%=      5-min Rain = 0
KOES 230900Z 36011G16KT 14/13 A3001 RMK A01 T01370130  RH  099%=      5-min Rain = 0
KOES 230905Z 34010G16KT 13/13 A3001 RMK A01 T01340127  RH  099%=      5-min Rain = 0
KOES 230910Z 35011KT 13/13 A3001 RMK A01 T01340128  RH  100%=      5-min Rain = 0
KOES 230915Z 00011KT 13/13 A3001 RMK A01 T01340127  RH  100%=      5-min Rain = 0
KOES 230920Z 01010KT 13/13 A3001 RMK A01 T01340127  RH  099%=      5-min Rain = 0
KOES 230925Z 01010G15KT 14/13 A30 RMK A01 T01350126  RH  098%=      5-min Rain = 0
KOES 230930Z 00010G15KT 14/12 A30 RMK A01 T01350120  RH  094%=      5-min Rain = 0
KOES 230935Z 35009KT 13/12 A3001 RMK A01 T01340118  RH  094%=      5-min Rain = 0
KOES 230940Z 35007KT 13/12 A30 RMK A01 T01330122  RH  096%=      5-min Rain = 0
KOES 230945Z 01009KT 13/12 A30 RMK A01 T01340124  RH  098%=      5-min Rain = 0
KOES 230950Z 02010KT 13/13 A2999 RMK A01 T01330125  RH  098%=      5-min Rain = 0
KOES 230955Z 02009KT 13/13 A30 RMK A01 T01340125  RH  098%=      5-min Rain = 0
KOES 231000Z 02010KT 13/13 A30 RMK A01 T01340125  RH  098%=      5-min Rain = 0
KOES 231005Z 02010KT 13/13 A30 RMK A01 T01340126  RH  098%=      5-min Rain = 0
KOES 231010Z 01009KT 13/13 A30 RMK A01 T01340126  RH  098%=      5-min Rain = 0
KOES 231015Z 00009KT 13/13 A30 RMK A01 T01340126  RH  099%=      5-min Rain = 0
KOES 231020Z 35013KT 13/13 A30 RMK A01 T01340126  RH  099%=      5-min Rain = 0
KOES 231025Z 36012KT 13/13 A30 RMK A01 T01340126  RH  099%=      5-min Rain = 0
KOES 231030Z 35013KT 13/13 A30 RMK A01 T01330125  RH  099%=      5-min Rain = 0
KOES 231035Z 36010KT 13/13 A30 RMK A01 T01330125  RH  099%=      5-min Rain = 0
KOES 231040Z 36012KT 13/12 A30 RMK A01 T01320124  RH  099%=      5-min Rain = 0
KOES 231045Z 00012KT 13/12 A30 RMK A01 T01310123  RH  098%=      5-min Rain = 0
KOES 231050Z 01013KT 13/12 A30 RMK A01 T01310122  RH  098%=      5-min Rain = 0
KOES 231055Z 01010KT 13/12 A3001 RMK A01 T01310121  RH  098%=      5-min Rain = 0
KOES 231100Z 02011KT 13/12 A3001 RMK A01 T01310121  RH  097%=      5-min Rain = 0
KOES 231105Z 02011KT 13/12 A30 RMK A01 T01300121  RH  097%=      5-min Rain = 0
KOES 231110Z 01010KT 13/12 A3001 RMK A01 T01300121  RH  098%=      5-min Rain = 0
KOES 231115Z 01009KT 13/12 A30 RMK A01 T01300122  RH  098%=      5-min Rain = 0
KOES 231120Z 02011KT 13/12 A30 RMK A01 T01300121  RH  098%=      5-min Rain = 0
KOES 231125Z 02010KT 13/12 A30 RMK A01 T01300121  RH  098%=      5-min Rain = 0
KOES 231130Z 02010KT 13/12 A30 RMK A01 T01300121  RH  098%=      5-min Rain = 0
KOES 231135Z 02010KT 13/12 A30 RMK A01 T01300122  RH  099%=      5-min Rain = 0
KOES 231140Z 02009KT 13/12 A30 RMK A01 T01300122  RH  099%=      5-min Rain = 0
KOES 231145Z 02009KT 13/12 A3001 RMK A01 T01300122  RH  099%=      5-min Rain = 0
KOES 231150Z 01008KT 13/12 A3001 RMK A01 T01300122  RH  099%=      5-min Rain = 0
KOES 231155Z 01009KT 13/12 A3001 RMK A01 T01300122  RH  098%=      5-min Rain = 0
KOES 231200Z 01009KT 13/12 A3001 RMK A01 T01310121  RH  098%=      5-min Rain = 0
KOES 231205Z 34010KT 13/12 A3003 RMK A01 T01310120  RH  096%=      5-min Rain = 0
KOES 231210Z 33011KT 13/12 A3004 RMK A01 T01320120  RH  096%=      5-min Rain = 0
KOES 231215Z 36009KT 13/12 A3003 RMK A01 T01320118  RH  095%=      5-min Rain = 0.01
KOES 231220Z 34011KT 13/12 A3003 RMK A01 T01310120  RH  096%=      5-min Rain = 0.01
KOES 231225Z 35009KT 13/12 A3003 RMK A01 T01310121  RH  097%=      5-min Rain = 0
KOES 231230Z 34007KT 13/12 A3004 RMK A01 T01310122  RH  098%=      5-min Rain = 0.01
KOES 231235Z 02011KT 13/12 A3002 RMK A01 T01310122  RH  098%=      5-min Rain = 0.02
KOES 231240Z 03011KT 13/12 A3001 RMK A01 T01300122  RH  099%=      5-min Rain = 0.01
KOES 231245Z 01008KT 13/12 A3004 RMK A01 T01290122  RH  099%=      5-min Rain = 0.01
KOES 231250Z 01007KT 13/12 A3005 RMK A01 T01280121  RH  099%=      5-min Rain = 0
KOES 231255Z 01010KT 13/12 A3003 RMK A01 T01280122  RH  099%=      5-min Rain = 0.02
KOES 231300Z 02008KT 13/12 A3003 RMK A01 T01280122  RH  100%=      5-min Rain = 0.01
KOES 231305Z 01008KT 13/12 A3004 RMK A01 T01280122  RH  100%=      5-min Rain = 0.01
KOES 231310Z 02010KT 13/12 A3004 RMK A01 T01270121  RH  100%=      5-min Rain = 0
KOES 231315Z 03011KT 13/12 A3003 RMK A01 T01270121  RH  100%=      5-min Rain = 0
KOES 231320Z 03013G18KT 13/12 A3003 RMK A01 T01280122  RH  100%=      5-min Rain = 0
KOES 231325Z 02016KT 13/12 A3001 RMK A01 T01280122  RH  100%=      5-min Rain = 0.01
KOES 231330Z 02014KT 13/12 A3002 RMK A01 T01280122  RH  100%=      5-min Rain = 0
KOES 231335Z 02013KT 13/12 A3002 RMK A01 T01280122  RH  100%=      5-min Rain = 0
KOES 231340Z 01012KT 13/12 A3003 RMK A01 T01280122  RH  100%=      5-min Rain = 0.01
KOES 231345Z 02012KT 13/12 A3004 RMK A01 T01280122  RH  100%=      5-min Rain = 0
KOES 231350Z 04011KT 13/12 A3005 RMK A01 T01290123  RH  100%=      5-min Rain = 0
KOES 231355Z 05011KT 13/12 A3005 RMK A01 T01290123  RH  099%=      5-min Rain = 0
KOES 231400Z 03011KT 13/12 A3004 RMK A01 T01300124  RH  099%=      5-min Rain = 0
KOES 231405Z 02014KT 13/12 A3002 RMK A01 T01310124  RH  099%=      5-min Rain = 0
KOES 231410Z 03012KT 13/12 A3002 RMK A01 T01310124  RH  100%=      5-min Rain = 0
KOES 231415Z 03013KT 13/13 A3003 RMK A01 T01310125  RH  100%=      5-min Rain = 0
KOES 231420Z 04014KT 13/12 A3002 RMK A01 T01310124  RH  099%=      5-min Rain = 0
KOES 231425Z 04013KT 13/12 A3002 RMK A01 T01310124  RH  099%=      5-min Rain = 0
KOES 231430Z 04013KT 13/12 A3003 RMK A01 T01310124  RH  099%=      5-min Rain = 0
KOES 231435Z 05013KT 13/13 A3003 RMK A01 T01330125  RH  099%=      5-min Rain = 0
KOES 231440Z 05013KT 13/13 A3003 RMK A01 T01340125  RH  098%=      5-min Rain = 0
KOES 231445Z 04012G17KT 14/13 A3003 RMK A01 T01360127  RH  098%=      5-min Rain = 0
KOES 231450Z 04013KT 14/13 A3003 RMK A01 T01370125  RH  096%=      5-min Rain = 0
KOES 231455Z 03014KT 14/12 A3003 RMK A01 T01360119  RH  093%=      5-min Rain = 0
KOES 231500Z 03013G18KT 14/12 A3003 RMK A01 T01370121  RH  093%=      5-min Rain = 0
KOES 231505Z 04015KT 14/12 A3003 RMK A01 T01380116  RH  090%=      5-min Rain = 0
KOES 231510Z 04014KT 14/12 A3003 RMK A01 T01400120  RH  091%=      5-min Rain = 0
KOES 231515Z 04014KT 14/12 A3003 RMK A01 T01420119  RH  089%=      5-min Rain = 0
KOES 231520Z 04014G19KT 14/12 A3003 RMK A01 T01420118  RH  088%=      5-min Rain = 0
KOES 231525Z 05012KT 14/12 A3004 RMK A01 T01420118  RH  089%=      5-min Rain = 0
KOES 231530Z 06014KT 14/12 A3005 RMK A01 T01410116  RH  088%=      5-min Rain = 0
KOES 231535Z 06014KT 14/12 A3005 RMK A01 T01410116  RH  088%=      5-min Rain = 0
KOES 231540Z 05012G17KT 14/12 A3005 RMK A01 T01410117  RH  088%=      5-min Rain = 0
KOES 231545Z 04013KT 14/12 A3005 RMK A01 T01420116  RH  087%=      5-min Rain = 0
KOES 231550Z 04012KT 14/12 A3005 RMK A01 T01440117  RH  087%=      5-min Rain = 0
KOES 231555Z 04012KT 15/12 A3005 RMK A01 T01460119  RH  087%=      5-min Rain = 0
KOES 231600Z 03011KT 15/12 A3005 RMK A01 T01450119  RH  087%=      5-min Rain = 0
KOES 231605Z 03010KT 14/12 A3006 RMK A01 T01440117  RH  086%=      5-min Rain = 0
KOES 231610Z 04011KT 15/12 A3006 RMK A01 T01450117  RH  086%=      5-min Rain = 0
KOES 231615Z 04010KT 15/12 A3006 RMK A01 T01470117  RH  085%=      5-min Rain = 0
KOES 231620Z 03011KT 15/12 A3006 RMK A01 T01470118  RH  086%=      5-min Rain = 0
KOES 231625Z 04011KT 15/12 A3006 RMK A01 T01460115  RH  084%=      5-min Rain = 0
KOES 231630Z 04010KT 15/12 A3006 RMK A01 T01470117  RH  085%=      5-min Rain = 0
KOES 231635Z 05010KT 15/12 A3006 RMK A01 T01470116  RH  085%=      5-min Rain = 0
KOES 231640Z 04009KT 15/12 A3006 RMK A01 T01470117  RH  085%=      5-min Rain = 0
KOES 231645Z 03009KT 15/12 A3006 RMK A01 T01490119  RH  085%=      5-min Rain = 0
KOES 231650Z 03011KT 15/12 A3006 RMK A01 T01520120  RH  085%=      5-min Rain = 0
KOES 231655Z 03009KT 15/12 A3006 RMK A01 T01520121  RH  085%=      5-min Rain = 0
KOES 231700Z 02009KT 15/12 A3006 RMK A01 T01530121  RH  084%=      5-min Rain = 0
KOES 231705Z 03010KT 15/12 A3006 RMK A01 T01540122  RH  084%=      5-min Rain = 0
KOES 231710Z 04009KT 16/12 A3006 RMK A01 T01550120  RH  083%=      5-min Rain = 0
KOES 231715Z 03009KT 16/12 A3005 RMK A01 T01570123  RH  083%=      5-min Rain = 0
KOES 231720Z 04010KT 16/12 A3005 RMK A01 T01580123  RH  083%=      5-min Rain = 0
KOES 231725Z 05010KT 16/12 A3005 RMK A01 T01590124  RH  083%=      5-min Rain = 0
KOES 231730Z 05009KT 16/12 A3005 RMK A01 T01590122  RH  081%=      5-min Rain = 0
KOES 231735Z 04009KT 16/12 A3005 RMK A01 T01600123  RH  082%=      5-min Rain = 0
KOES 231740Z 06009KT 16/12 A3005 RMK A01 T01600120  RH  080%=      5-min Rain = 0
KOES 231745Z 07008KT 16/12 A3006 RMK A01 T01590118  RH  080%=      5-min Rain = 0
KOES 231750Z 08007KT 16/12 A3006 RMK A01 T01600119  RH  080%=      5-min Rain = 0
KOES 231755Z 06008KT 16/12 A3005 RMK A01 T01620119  RH  079%=      5-min Rain = 0
KOES 231800Z 07008KT 17/12 A3005 RMK A01 T01650120  RH  078%=      5-min Rain = 0
KOES 231805Z 07007KT 17/12 A3005 RMK A01 T01660120  RH  077%=      5-min Rain = 0
KOES 231810Z 06007KT 17/12 A3004 RMK A01 T01680121  RH  077%=      5-min Rain = 0
KOES 231815Z 05006KT 17/12 A3004 RMK A01 T01680118  RH  075%=      5-min Rain = 0
KOES 231820Z 05004KT 17/12 A3004 RMK A01 T01710119  RH  074%=      5-min Rain = 0
KOES 231825Z 03008KT 17/13 A3004 RMK A01 T01730126  RH  077%=      5-min Rain = 0
KOES 231830Z 04007KT 17/12 A3004 RMK A01 T01710121  RH  075%=      5-min Rain = 0
KOES 231835Z 04007KT 17/12 A3003 RMK A01 T01710117  RH  074%=      5-min Rain = 0
KOES 231840Z 03007KT 18/12 A3003 RMK A01 T01750122  RH  074%=      5-min Rain = 0
KOES 231845Z 05008KT 17/12 A3003 RMK A01 T01740124  RH  075%=      5-min Rain = 0
KOES 231850Z 05007KT 17/12 A3003 RMK A01 T01730124  RH  076%=      5-min Rain = 0
KOES 231855Z 05006KT 17/12 A3003 RMK A01 T01720121  RH  075%=      5-min Rain = 0
KOES 231900Z 05006KT 17/12 A3003 RMK A01 T01710122  RH  075%=      5-min Rain = 0
KOES 231905Z 06007KT 17/12 A3003 RMK A01 T01710120  RH  075%=      5-min Rain = 0
KOES 231910Z 07007KT 17/12 A3003 RMK A01 T01700123  RH  077%=      5-min Rain = 0
KOES 231915Z 07007KT 17/12 A3003 RMK A01 T01700120  RH  075%=      5-min Rain = 0
KOES 231920Z 07006KT 17/12 A3003 RMK A01 T01690118  RH  075%=      5-min Rain = 0
KOES 231925Z 05005KT 17/12 A3003 RMK A01 T01690117  RH  074%=      5-min Rain = 0
KOES 231930Z 05006KT 17/12 A3003 RMK A01 T01700121  RH  076%=      5-min Rain = 0
KOES 231935Z 05005KT 17/12 A3003 RMK A01 T01700120  RH  075%=      5-min Rain = 0
KOES 231940Z 06006KT 17/12 A3003 RMK A01 T01700122  RH  076%=      5-min Rain = 0
KOES 231945Z 07006KT 17/12 A3003 RMK A01 T01690120  RH  076%=      5-min Rain = 0
KOES 231950Z 07005KT 17/12 A3003 RMK A01 T01680120  RH  076%=      5-min Rain = 0
KOES 231955Z 05005KT 17/12 A3003 RMK A01 T01700121  RH  076%=      5-min Rain = 0
KOES 232000Z 04005KT 17/12 A3002 RMK A01 T01700120  RH  075%=      5-min Rain = 0
KOES 232005Z 06004KT 17/12 A3002 RMK A01 T01700120  RH  075%=      5-min Rain = 0
KOES 232010Z 05005KT 17/12 A3002 RMK A01 T01700124  RH  077%=      5-min Rain = 0
KOES 232015Z 04006KT 17/12 A3002 RMK A01 T01700124  RH  077%=      5-min Rain = 0
KOES 232020Z 02005KT 17/12 A3002 RMK A01 T01710124  RH  077%=      5-min Rain = 0
KOES 232025Z 05005KT 17/12 A3002 RMK A01 T01710124  RH  077%=      5-min Rain = 0
KOES 232030Z 06006KT 17/12 A3002 RMK A01 T01700123  RH  077%=      5-min Rain = 0
KOES 232035Z 05006KT 17/12 A3002 RMK A01 T01690121  RH  076%=      5-min Rain = 0
KOES 232040Z 05006KT 17/13 A3001 RMK A01 T01690125  RH  078%=      5-min Rain = 0
KOES 232045Z 04007KT 17/13 A3001 RMK A01 T01700126  RH  078%=      5-min Rain = 0
KOES 232050Z 05007KT 17/12 A3001 RMK A01 T01700124  RH  077%=      5-min Rain = 0
KOES 232055Z 05007KT 17/13 A3001 RMK A01 T01700125  RH  078%=      5-min Rain = 0
KOES 232100Z 06007KT 17/13 A3001 RMK A01 T01700125  RH  078%=      5-min Rain = 0
KOES 232105Z 04007KT 17/13 A30 RMK A01 T01700126  RH  078%=      5-min Rain = 0
KOES 232110Z 05007KT 17/13 A30 RMK A01 T01700126  RH  079%=      5-min Rain = 0
KOES 232115Z 05007KT 17/13 A30 RMK A01 T01700125  RH  078%=      5-min Rain = 0
KOES 232120Z 05008KT 17/13 A30 RMK A01 T01700125  RH  078%=      5-min Rain = 0
KOES 232125Z 05008KT 17/13 A2999 RMK A01 T01700126  RH  078%=      5-min Rain = 0
KOES 232130Z 04008KT 17/13 A2999 RMK A01 T01710127  RH  078%=      5-min Rain = 0
KOES 232135Z 04009KT 17/13 A2999 RMK A01 T01700126  RH  078%=      5-min Rain = 0
KOES 232140Z 03008KT 17/13 A2999 RMK A01 T01700127  RH  079%=      5-min Rain = 0
KOES 232145Z 04009KT 17/13 A2999 RMK A01 T01690126  RH  079%=      5-min Rain = 0
KOES 232150Z 03009KT 17/13 A2999 RMK A01 T01690126  RH  079%=      5-min Rain = 0
KOES 232155Z 03009KT 17/13 A2998 RMK A01 T01690127  RH  079%=      5-min Rain = 0
KOES 232200Z 03009KT 17/13 A2998 RMK A01 T01690128  RH  080%=      5-min Rain = 0
KOES 232205Z 02010KT 17/13 A2998 RMK A01 T01690127  RH  079%=      5-min Rain = 0
KOES 232210Z 02014KT 17/13 A2998 RMK A01 T01670129  RH  081%=      5-min Rain = 0
KOES 232215Z 01015KT 16/13 A2998 RMK A01 T01610131  RH  085%=      5-min Rain = 0
KOES 232220Z 02015G20KT 16/13 A2998 RMK A01 T01580131  RH  087%=      5-min Rain = 0
KOES 232225Z 02016KT 16/13 A2998 RMK A01 T01560129  RH  088%=      5-min Rain = 0
KOES 232230Z 02014KT 16/13 A2998 RMK A01 T01550130  RH  088%=      5-min Rain = 0
KOES 232235Z 02015KT 15/13 A2998 RMK A01 T01520126  RH  088%=      5-min Rain = 0
KOES 232240Z 02016KT 15/12 A2998 RMK A01 T01480123  RH  088%=      5-min Rain = 0
KOES 232245Z 02017KT 15/12 A2998 RMK A01 T01480122  RH  088%=      5-min Rain = 0
KOES 232250Z 02015G20KT 15/12 A2998 RMK A01 T01470123  RH  088%=      5-min Rain = 0
KOES 232255Z 02016KT 15/12 A2998 RMK A01 T01460121  RH  088%=      5-min Rain = 0
KOES 232300Z 02016G21KT 15/12 A2998 RMK A01 T01460121  RH  088%=      5-min Rain = 0
KOES 232305Z 02016KT 15/12 A2998 RMK A01 T01450120  RH  088%=      5-min Rain = 0
KOES 232310Z 03016G21KT 14/12 A2998 RMK A01 T01430119  RH  088%=      5-min Rain = 0
KOES 232315Z 02017KT 14/12 A2999 RMK A01 T01420117  RH  088%=      5-min Rain = 0
KOES 232320Z 02015G20KT 14/12 A2999 RMK A01 T01400117  RH  089%=      5-min Rain = 0
KOES 232325Z 03018KT 14/12 A2999 RMK A01 T01390115  RH  089%=      5-min Rain = 0
KOES 232330Z 03016G21KT 14/12 A2999 RMK A01 T01380115  RH  089%=      5-min Rain = 0
KOES 232335Z 02015G20KT 14/11 A2999 RMK A01 T01370114  RH  089%=      5-min Rain = 0
KOES 232340Z 02015KT 14/11 A2999 RMK A01 T01370114  RH  089%=      5-min Rain = 0
KOES 232345Z 02018G23KT 14/11 A2999 RMK A01 T01360112  RH  088%=      5-min Rain = 0
KOES 232350Z 01016G22KT 14/11 A2999 RMK A01 T01350111  RH  089%=      5-min Rain = 0
KOES 232355Z 02017G22KT 13/11 A2999 RMK A01 T01330110  RH  089%=      5-min Rain = 0
KOES 240000Z 02016KT 13/11 A30 RMK A01 T01320109  RH  089%=      5-min Rain = 0
KOES 240005Z 02015KT 13/11 A30 RMK A01 T01320108  RH  088%=      5-min Rain = 0
KOES 240010Z 02016KT 13/11 A30 RMK A01 T01320108  RH  088%=      5-min Rain = 0
KOES 240015Z 02016KT 13/11 A30 RMK A01 T01320108  RH  088%=      5-min Rain = 0
KOES 240020Z 02015KT 13/11 A30 RMK A01 T01310108  RH  089%=      5-min Rain = 0
KOES 240025Z 03016KT 13/11 A2999 RMK A01 T01300107  RH  089%=      5-min Rain = 0
KOES 240030Z 03016KT 13/11 A30 RMK A01 T01300106  RH  089%=      5-min Rain = 0
KOES 240035Z 03016KT 13/11 A30 RMK A01 T01300106  RH  089%=      5-min Rain = 0
KOES 240040Z 04016G21KT 13/11 A30 RMK A01 T01300106  RH  088%=      5-min Rain = 0
KOES 240045Z 03015KT 13/11 A30 RMK A01 T01290106  RH  089%=      5-min Rain = 0
KOES 240050Z 03015KT 13/11 A30 RMK A01 T01290106  RH  089%=      5-min Rain = 0
KOES 240055Z 03014KT 13/11 A30 RMK A01 T01290106  RH  089%=      5-min Rain = 0
KOES 240100Z 04014KT 13/11 A30 RMK A01 T01290105  RH  089%=      5-min Rain = 0
KOES 240105Z 03016KT 13/11 A30 RMK A01 T01280105  RH  088%=      5-min Rain = 0
KOES 240110Z 04017KT 13/10 A30 RMK A01 T01280104  RH  088%=      5-min Rain = 0
KOES 240115Z 03015KT 13/10 A30 RMK A01 T01290104  RH  088%=      5-min Rain = 0
KOES 240120Z 03014KT 13/10 A30 RMK A01 T01290104  RH  088%=      5-min Rain = 0
KOES 240125Z 02015KT 13/10 A2999 RMK A01 T01290104  RH  088%=      5-min Rain = 0
KOES 240130Z 02014G19KT 13/10 A2999 RMK A01 T01290104  RH  088%=      5-min Rain = 0
KOES 240135Z 01015G20KT 13/10 A2999 RMK A01 T01290103  RH  088%=      5-min Rain = 0
KOES 240140Z 02013KT 13/10 A30 RMK A01 T01290104  RH  088%=      5-min Rain = 0
KOES 240145Z 02011KT 13/11 A3001 RMK A01 T01290105  RH  088%=      5-min Rain = 0
KOES 240150Z 02012KT 13/11 A3001 RMK A01 T01290105  RH  088%=      5-min Rain = 0
KOES 240155Z 02012KT 13/11 A30 RMK A01 T01300105  RH  088%=      5-min Rain = 0
KOES 240200Z 01016KT 13/10 A2999 RMK A01 T01290104  RH  087%=      5-min Rain = 0
KOES 240205Z 01015KT 13/10 A2999 RMK A01 T01290103  RH  087%=      5-min Rain = 0
KOES 240210Z 02014G19KT 13/10 A30 RMK A01 T01290103  RH  087%=      5-min Rain = 0
KOES 240215Z 02011KT 13/10 A30 RMK A01 T01280103  RH  087%=      5-min Rain = 0
KOES 240220Z 03012KT 13/10 A30 RMK A01 T01280103  RH  087%=      5-min Rain = 0
KOES 240225Z 04013KT 13/10 A2999 RMK A01 T01280103  RH  088%=      5-min Rain = 0
KOES 240230Z 04014KT 13/10 A2999 RMK A01 T01290103  RH  087%=      5-min Rain = 0
KOES 240235Z 06011KT 13/11 A30 RMK A01 T01290105  RH  088%=      5-min Rain = 0
KOES 240240Z 06013KT 13/10 A30 RMK A01 T01290103  RH  087%=      5-min Rain = 0
KOES 240245Z 05013KT 13/10 A3001 RMK A01 T01290103  RH  087%=      5-min Rain = 0
KOES 240250Z 05013KT 13/10 A3001 RMK A01 T01280102  RH  087%=      5-min Rain = 0
KOES 240255Z 05011KT 13/10 A3002 RMK A01 T01280102  RH  087%=      5-min Rain = 0
KOES 240300Z 04013KT 13/10 A3002 RMK A01 T01280101  RH  087%=      5-min Rain = 0
KOES 240305Z 04012KT 13/10 A3002 RMK A01 T01280101  RH  087%=      5-min Rain = 0
KOES 240310Z 04012KT 13/10 A3002 RMK A01 T01280101  RH  087%=      5-min Rain = 0
KOES 240315Z 03012KT 13/10 A3002 RMK A01 T01270100  RH  086%=      5-min Rain = 0
KOES 240320Z 03011KT 13/10 A3002 RMK A01 T01270101  RH  087%=      5-min Rain = 0
KOES 240325Z 03011KT 13/10 A3003 RMK A01 T01260100  RH  087%=      5-min Rain = 0
KOES 240330Z 03010KT 13/10 A3003 RMK A01 T01260101  RH  087%=      5-min Rain = 0
KOES 240335Z 03010KT 13/10 A3004 RMK A01 T01260100  RH  087%=      5-min Rain = 0
KOES 240340Z 02008KT 13/10 A3005 RMK A01 T01260101  RH  087%=      5-min Rain = 0
KOES 240345Z 02009KT 13/10 A3005 RMK A01 T01260101  RH  087%=      5-min Rain = 0
KOES 240350Z 02008KT 13/10 A3005 RMK A01 T01260101  RH  087%=      5-min Rain = 0
KOES 240355Z 02009KT 13/10 A3005 RMK A01 T01270101  RH  087%=      5-min Rain = 0
KOES 240400Z 03010KT 13/10 A3004 RMK A01 T01270101  RH  087%=      5-min Rain = 0
KOES 240405Z 03010KT 13/10 A3004 RMK A01 T01270100  RH  087%=      5-min Rain = 0
KOES 240410Z 03009KT 13/10 A3003 RMK A01 T01270100  RH  087%=      5-min Rain = 0
KOES 240415Z 03008KT 13/10 A3003 RMK A01 T01260100  RH  087%=      5-min Rain = 0
KOES 240420Z 03009KT 13/10 A3003 RMK A01 T01260100  RH  087%=      5-min Rain = 0
KOES 240425Z 03009KT 13/10 A3002 RMK A01 T01250100  RH  087%=      5-min Rain = 0
KOES 240430Z 04009KT 13/10 A3001 RMK A01 T01250100  RH  088%=      5-min Rain = 0
KOES 240435Z 04011KT 13/10 A3001 RMK A01 T01250100  RH  088%=      5-min Rain = 0
KOES 240440Z 04010KT 12/10 A3002 RMK A01 T01240099  RH  087%=      5-min Rain = 0
KOES 240445Z 05010KT 12/10 A3001 RMK A01 T01240100  RH  088%=      5-min Rain = 0
KOES 240450Z 05012KT 12/10 A30 RMK A01 T01240099  RH  088%=      5-min Rain = 0
KOES 240455Z 05012KT 12/10 A2998 RMK A01 T01230099  RH  088%=      5-min Rain = 0

Page generated in 0.0093 seconds.